Time;durP1;ratioP1;P1;durP2;ratioP2;P2;SDS_P1;SDS_P2;PMS_P1;PMS_P2;Temp;Humidity;BMP_temperature;BMP_pressure;BME280_temperature;BME280_humidity;BME280_pressure;Samples;Min_cycle;Max_cycle;Signal;HPM_P1;HPM_P2
2023/09/24 04:05:11;;;;;;;0.30;0.20;;;8.70;99.90;;;;;;5974861;22;20305;-66
2023/09/24 04:07:38;;;;;;;0.30;0.30;;;8.70;99.90;;;;;;5091604;28;20191;-65
2023/09/24 04:10:06;;;;;;;0.33;0.33;;;8.70;99.90;;;;;;5093120;28;20172;-66
2023/09/24 04:12:35;;;;;;;0.30;0.30;;;8.70;99.90;;;;;;5074883;28;20199;-65
2023/09/24 04:15:03;;;;;;;0.30;0.30;;;8.70;99.90;;;;;;5086712;28;20592;-66
2023/09/24 04:17:29;;;;;;;0.30;0.30;;;8.70;99.90;;;;;;5072522;28;20210;-65
2023/09/24 04:19:55;;;;;;;0.30;0.30;;;8.60;99.90;;;;;;5075779;28;20172;-66
2023/09/24 04:22:22;;;;;;;0.50;0.50;;;8.70;99.90;;;;;;5075646;28;20249;-66
2023/09/24 04:24:51;;;;;;;0.40;0.40;;;8.70;99.90;;;;;;5075424;28;20200;-66
2023/09/24 04:27:16;;;;;;;0.30;0.30;;;8.60;99.90;;;;;;5076027;28;20177;-66
2023/09/24 04:29:42;;;;;;;0.30;0.30;;;8.60;99.90;;;;;;5075393;28;20633;-65
2023/09/24 04:32:08;;;;;;;0.30;0.30;;;8.60;99.90;;;;;;5075174;28;20935;-66
2023/09/24 04:34:35;;;;;;;0.30;0.30;;;8.60;99.90;;;;;;5074736;28;20184;-65
2023/09/24 04:37:00;;;;;;;0.30;0.30;;;8.50;99.90;;;;;;5075034;28;20207;-66
2023/09/24 04:39:26;;;;;;;0.30;0.30;;;8.60;99.90;;;;;;5076002;28;20274;-66
2023/09/24 04:41:52;;;;;;;0.30;0.30;;;8.50;99.90;;;;;;5075836;28;20177;-65
2023/09/24 04:44:17;;;;;;;0.30;0.30;;;8.50;99.90;;;;;;5075477;28;20410;-66
2023/09/24 04:46:44;;;;;;;0.30;0.30;;;8.50;99.90;;;;;;5075106;28;20196;-66
2023/09/24 04:49:09;;;;;;;0.30;0.20;;;8.40;99.90;;;;;;5075699;28;20200;-66
2023/09/24 04:51:35;;;;;;;0.30;0.30;;;8.40;99.90;;;;;;5075407;28;20679;-66
2023/09/24 04:54:01;;;;;;;0.30;0.30;;;8.40;99.90;;;;;;5075154;28;20256;-64
2023/09/24 04:56:30;;;;;;;0.30;0.30;;;8.40;99.90;;;;;;5075493;28;20531;-64
2023/09/24 04:58:55;;;;;;;0.30;0.30;;;8.30;99.90;;;;;;5075242;28;20193;-64
2023/09/24 05:01:21;;;;;;;0.40;0.40;;;8.30;99.90;;;;;;5074643;28;20222;-65
2023/09/24 05:03:49;;;;;;;0.30;0.30;;;8.30;99.90;;;;;;5074766;28;20267;-66
2023/09/24 05:06:15;;;;;;;0.30;0.30;;;8.20;99.90;;;;;;5075303;28;20298;-66
2023/09/24 05:08:41;;;;;;;0.30;0.30;;;8.30;99.90;;;;;;5075441;28;20518;-66
2023/09/24 05:11:13;;;;;;;0.30;0.30;;;8.30;99.90;;;;;;5074834;28;20184;-64
2023/09/24 05:13:40;;;;;;;0.30;0.30;;;8.30;99.90;;;;;;5075305;28;20598;-64
2023/09/24 05:16:05;;;;;;;0.30;0.30;;;8.30;99.90;;;;;;5074136;28;20203;-66
2023/09/24 05:18:34;;;;;;;0.30;0.30;;;8.30;99.90;;;;;;5074408;28;20204;-66
2023/09/24 05:20:59;;;;;;;0.30;0.30;;;8.20;99.90;;;;;;5074593;28;20169;-66
2023/09/24 05:23:25;;;;;;;0.30;0.30;;;8.20;99.90;;;;;;5075319;28;20191;-66
2023/09/24 05:25:51;;;;;;;0.30;0.30;;;8.30;99.90;;;;;;5074261;28;20192;-66
2023/09/24 05:28:17;;;;;;;0.30;0.30;;;8.30;99.90;;;;;;5074655;28;20863;-65
2023/09/24 05:30:50;;;;;;;0.30;0.20;;;8.30;99.90;;;;;;5074468;28;20427;-66
2023/09/24 05:33:15;;;;;;;0.30;0.30;;;8.30;99.90;;;;;;5075159;28;20561;-65
2023/09/24 05:35:41;;;;;;;0.63;0.63;;;8.30;99.90;;;;;;5074559;28;20250;-66
2023/09/24 05:38:07;;;;;;;0.30;0.30;;;8.30;99.90;;;;;;5074877;28;20239;-66
2023/09/24 05:40:38;;;;;;;0.30;0.30;;;8.30;99.90;;;;;;5074307;28;20169;-66
2023/09/24 05:43:03;;;;;;;0.30;0.30;;;8.40;99.90;;;;;;5074860;28;20556;-66
2023/09/24 05:45:29;;;;;;;0.30;0.30;;;8.40;99.90;;;;;;5073157;28;20191;-66
2023/09/24 05:47:55;;;;;;;0.40;0.40;;;8.50;99.90;;;;;;5073902;28;20190;-66
2023/09/24 05:50:21;;;;;;;0.30;0.20;;;8.50;99.90;;;;;;5074528;28;20411;-66
2023/09/24 05:52:46;;;;;;;0.30;0.30;;;8.50;99.90;;;;;;5074515;28;20403;-66
2023/09/24 05:55:12;;;;;;;0.30;0.30;;;8.60;99.90;;;;;;5073554;28;20201;-66
2023/09/24 05:57:38;;;;;;;0.30;0.20;;;8.60;99.90;;;;;;5074170;28;20219;-65
2023/09/24 06:00:04;;;;;;;0.30;0.27;;;8.60;99.90;;;;;;5074060;28;20192;-66
2023/09/24 06:02:30;;;;;;;0.35;0.35;;;8.60;99.90;;;;;;5074137;28;20254;-66
2023/09/24 06:04:55;;;;;;;0.30;0.20;;;8.70;99.90;;;;;;5073817;28;20188;-65
2023/09/24 06:07:22;;;;;;;0.30;0.30;;;8.70;99.90;;;;;;5074039;28;20180;-66
2023/09/24 06:09:48;;;;;;;0.30;0.28;;;8.80;99.90;;;;;;5073936;28;20179;-65
2023/09/24 06:12:14;;;;;;;0.30;0.30;;;8.80;99.90;;;;;;5073948;28;20580;-65
2023/09/24 06:14:39;;;;;;;0.30;0.30;;;8.90;99.90;;;;;;5073166;28;20434;-65
2023/09/24 06:17:05;;;;;;;0.60;0.53;;;9.00;99.90;;;;;;5073897;28;20180;-65
2023/09/24 06:19:31;;;;;;;0.30;0.30;;;9.10;99.90;;;;;;5074046;28;20236;-65
2023/09/24 06:21:57;;;;;;;0.60;0.60;;;9.10;99.90;;;;;;5074025;28;20453;-65
2023/09/24 06:24:23;;;;;;;0.30;0.30;;;9.20;99.90;;;;;;5072727;28;20197;-65
2023/09/24 06:26:48;;;;;;;0.30;0.20;;;9.40;99.90;;;;;;5072962;28;20185;-66
2023/09/24 06:29:14;;;;;;;0.30;0.30;;;9.50;99.90;;;;;;5073021;28;20203;-66
2023/09/24 06:31:40;;;;;;;0.30;0.30;;;9.60;99.90;;;;;;5073624;28;20252;-66
2023/09/24 06:34:06;;;;;;;0.30;0.30;;;9.70;99.90;;;;;;5073443;28;20538;-66
2023/09/24 06:36:31;;;;;;;0.53;0.53;;;9.80;99.90;;;;;;5073547;28;20192;-66
2023/09/24 06:38:57;;;;;;;0.30;0.20;;;10.00;99.90;;;;;;5072523;28;20508;-66
2023/09/24 06:41:23;;;;;;;0.30;0.20;;;10.10;99.90;;;;;;5068339;28;20182;-65
2023/09/24 06:43:48;;;;;;;0.30;0.30;;;10.30;99.90;;;;;;5070241;28;20219;-66
2023/09/24 06:46:14;;;;;;;0.30;0.30;;;10.60;99.90;;;;;;5065581;28;20459;-66
2023/09/24 06:48:39;;;;;;;0.40;0.40;;;10.80;99.90;;;;;;5073494;28;20204;-66
2023/09/24 06:51:07;;;;;;;0.53;0.53;;;10.90;99.90;;;;;;5072745;28;20176;-67
2023/09/24 06:53:33;;;;;;;0.30;0.20;;;11.00;99.90;;;;;;5073165;28;20213;-66
2023/09/24 06:55:58;;;;;;;0.30;0.30;;;11.00;99.90;;;;;;5072126;28;20476;-66
2023/09/24 06:58:24;;;;;;;0.30;0.30;;;11.20;99.90;;;;;;5072875;28;20685;-67
2023/09/24 07:00:51;;;;;;;0.30;0.30;;;11.40;99.90;;;;;;5072605;28;20276;-65
2023/09/24 07:03:16;;;;;;;0.30;0.30;;;11.60;99.90;;;;;;5073385;28;20440;-65
2023/09/24 07:05:42;;;;;;;0.30;0.30;;;11.90;99.90;;;;;;5072310;28;20264;-66
2023/09/24 07:08:07;;;;;;;0.30;0.30;;;12.30;99.90;;;;;;5072167;28;20616;-65
2023/09/24 07:10:33;;;;;;;0.30;0.30;;;12.90;99.90;;;;;;5073099;28;20188;-65
2023/09/24 07:12:59;;;;;;;0.30;0.30;;;13.50;99.90;;;;;;5072803;28;20183;-65
2023/09/24 07:15:24;;;;;;;0.30;0.30;;;14.00;99.90;;;;;;5071931;28;20291;-65
2023/09/24 07:17:50;;;;;;;0.30;0.30;;;14.30;99.90;;;;;;5073041;28;20196;-67
2023/09/24 07:20:16;;;;;;;0.40;0.40;;;14.50;99.90;;;;;;5072689;28;20527;-66
2023/09/24 07:22:41;;;;;;;0.30;0.20;;;14.60;99.90;;;;;;5072930;28;20214;-66
2023/09/24 07:25:08;;;;;;;0.30;0.20;;;14.60;99.90;;;;;;5054722;28;20275;-66
2023/09/24 07:27:33;;;;;;;0.30;0.20;;;14.60;99.90;;;;;;5067951;28;20230;-66
2023/09/24 07:29:59;;;;;;;0.30;0.30;;;14.60;99.90;;;;;;5071994;28;20432;-69
2023/09/24 07:32:25;;;;;;;0.30;0.20;;;14.90;99.90;;;;;;5054215;28;20184;-67
2023/09/24 07:34:51;;;;;;;0.30;0.30;;;15.40;99.90;;;;;;5071711;28;20521;-67
2023/09/24 07:37:16;;;;;;;0.30;0.20;;;15.80;99.90;;;;;;5072349;28;20897;-68
2023/09/24 07:39:42;;;;;;;0.30;0.20;;;16.40;99.90;;;;;;5072756;28;20176;-68
2023/09/24 07:42:08;;;;;;;0.30;0.30;;;16.90;99.90;;;;;;5072908;28;20180;-69
2023/09/24 07:44:33;;;;;;;0.30;0.30;;;17.60;99.90;;;;;;5072151;28;20173;-68
2023/09/24 07:46:59;;;;;;;0.30;0.20;;;18.40;99.90;;;;;;5071714;28;20184;-66
2023/09/24 07:49:25;;;;;;;0.73;0.70;;;19.00;99.90;;;;;;5071208;28;20176;-64
2023/09/24 07:51:50;;;;;;;0.30;0.20;;;19.40;99.90;;;;;;5074878;28;20176;-64
2023/09/24 07:54:17;;;;;;;0.50;0.50;;;20.10;99.90;;;;;;5075630;28;20215;-69
2023/09/24 07:56:43;;;;;;;0.40;0.40;;;21.10;99.10;;;;;;5075930;28;20242;-75
2023/09/24 07:59:10;;;;;;;0.37;0.37;;;22.00;96.50;;;;;;5062098;28;21153;-69
2023/09/24 08:01:35;;;;;;;0.30;0.20;;;22.70;95.70;;;;;;5075083;28;20489;-67
2023/09/24 08:04:01;;;;;;;0.30;0.30;;;23.50;95.90;;;;;;5074512;28;20465;-67
2023/09/24 08:06:28;;;;;;;0.50;0.50;;;24.40;93.00;;;;;;5074638;28;20570;-67
2023/09/24 08:08:55;;;;;;;0.30;0.30;;;25.00;91.90;;;;;;5074653;28;20659;-63
2023/09/24 08:11:21;;;;;;;0.30;0.30;;;25.50;90.30;;;;;;5074878;28;20397;-64
2023/09/24 08:13:47;;;;;;;0.30;0.30;;;25.70;90.70;;;;;;5073859;28;20451;-63
2023/09/24 08:16:13;;;;;;;0.40;0.40;;;25.70;88.00;;;;;;5056316;28;20422;-63
2023/09/24 08:18:40;;;;;;;0.30;0.30;;;25.80;87.10;;;;;;5056272;28;20208;-64
2023/09/24 08:21:05;;;;;;;0.30;0.30;;;25.60;87.70;;;;;;5055971;28;20379;-67
2023/09/24 08:23:32;;;;;;;0.40;0.30;;;25.70;89.30;;;;;;5070832;28;20394;-64
2023/09/24 08:25:59;;;;;;;0.57;0.57;;;26.10;87.10;;;;;;5074369;28;20203;-68
2023/09/24 08:28:25;;;;;;;0.30;0.30;;;26.20;85.20;;;;;;5073596;28;20474;-68
2023/09/24 08:30:51;;;;;;;0.30;0.30;;;26.40;83.50;;;;;;5073378;28;20454;-67
2023/09/24 08:33:17;;;;;;;0.40;0.40;;;26.20;84.40;;;;;;5073694;28;20537;-69
2023/09/24 08:35:43;;;;;;;0.40;0.40;;;26.20;83.60;;;;;;5056760;28;20204;-68
2023/09/24 08:38:09;;;;;;;0.30;0.30;;;26.40;84.00;;;;;;5072980;28;20483;-71
2023/09/24 08:40:35;;;;;;;0.30;0.30;;;26.80;82.20;;;;;;5073767;28;20983;-70
2023/09/24 08:43:08;;;;;;;0.40;0.40;;;27.00;81.90;;;;;;5075055;28;20403;-67
2023/09/24 08:45:34;;;;;;;0.30;0.30;;;27.00;81.40;;;;;;5074947;28;20429;-68
2023/09/24 08:48:06;;;;;;;0.30;0.30;;;27.40;79.80;;;;;;5075578;28;20400;-69
2023/09/24 08:50:36;;;;;;;0.47;0.47;;;27.70;78.90;;;;;;5075863;28;20386;-67
2023/09/24 08:53:05;;;;;;;0.33;0.33;;;28.10;77.50;;;;;;5074981;28;20766;-66
2023/09/24 08:55:31;;;;;;;0.43;0.43;;;28.60;76.30;;;;;;5074847;28;20457;-69
2023/09/24 08:57:57;;;;;;;0.30;0.30;;;28.90;75.30;;;;;;5072283;28;20462;-70
2023/09/24 09:00:22;;;;;;;0.40;0.40;;;28.80;75.30;;;;;;5074826;28;20434;-69
2023/09/24 09:02:48;;;;;;;1.07;0.50;;;28.80;74.80;;;;;;5073365;28;20196;-69
2023/09/24 09:05:21;;;;;;;0.40;0.40;;;28.90;76.00;;;;;;5074483;28;20196;-71
2023/09/24 09:07:58;;;;;;;0.30;0.30;;;29.40;74.80;;;;;;5075353;28;20528;-68
2023/09/24 09:10:31;;;;;;;0.40;0.40;;;29.70;73.40;;;;;;5075277;28;20460;-68
2023/09/24 09:13:10;;;;;;;0.50;0.50;;;30.00;72.50;;;;;;5075254;28;20426;-71
2023/09/24 09:15:38;;;;;;;0.40;0.40;;;30.10;72.00;;;;;;5074001;28;20427;-69
2023/09/24 09:18:05;;;;;;;0.30;0.30;;;30.00;70.00;;;;;;5073071;28;20790;-68
2023/09/24 09:20:43;;;;;;;0.30;0.30;;;30.20;70.00;;;;;;5073047;28;20413;-69
2023/09/24 09:23:12;;;;;;;0.40;0.40;;;30.60;69.80;;;;;;5073140;28;20471;-69
2023/09/24 09:25:49;;;;;;;0.50;0.50;;;31.00;69.50;;;;;;5072680;28;20465;-69
2023/09/24 09:28:20;;;;;;;0.40;0.40;;;31.10;67.20;;;;;;5071691;28;20445;-68
2023/09/24 09:31:06;;;;;;;0.40;0.40;;;31.00;67.40;;;;;;5073613;28;20403;-67
2023/09/24 09:33:42;;;;;;;0.40;0.40;;;31.20;67.20;;;;;;5075012;28;20905;-69
2023/09/24 09:36:28;;;;;;;0.40;0.40;;;31.10;67.30;;;;;;5074743;28;20430;-71
2023/09/24 09:38:59;;;;;;;0.40;0.40;;;31.10;67.20;;;;;;5073411;28;20512;-68
2023/09/24 09:41:25;;;;;;;0.50;0.50;;;31.00;67.00;;;;;;5074921;28;20795;-69
2023/09/24 09:43:52;;;;;;;0.40;0.40;;;30.70;67.30;;;;;;5074376;28;20411;-69
2023/09/24 09:46:28;;;;;;;0.30;0.30;;;30.10;67.20;;;;;;5074468;28;20476;-70
2023/09/24 09:49:06;;;;;;;0.40;0.40;;;29.90;67.60;;;;;;5074502;28;20403;-70
2023/09/24 09:51:47;;;;;;;0.77;0.30;;;29.80;68.00;;;;;;5074284;28;20411;-68
2023/09/24 09:54:14;;;;;;;0.30;0.30;;;29.80;67.60;;;;;;5074346;28;20418;-67
2023/09/24 09:56:41;;;;;;;0.37;0.37;;;29.60;67.20;;;;;;5074373;28;20405;-70
2023/09/24 09:59:08;;;;;;;0.60;0.40;;;29.70;66.60;;;;;;5056331;28;20451;-68
2023/09/24 10:01:35;;;;;;;0.43;0.43;;;29.70;67.70;;;;;;5074324;28;20399;-69
2023/09/24 10:04:03;;;;;;;0.30;0.30;;;29.40;68.80;;;;;;5074080;28;20378;-69
2023/09/24 10:06:34;;;;;;;0.40;0.40;;;29.40;68.60;;;;;;5074086;28;20421;-69
2023/09/24 10:09:00;;;;;;;0.30;0.30;;;29.10;68.60;;;;;;5074242;28;20386;-67
2023/09/24 10:11:32;;;;;;;0.40;0.30;;;28.90;70.00;;;;;;5074210;28;20402;-71
2023/09/24 10:14:05;;;;;;;0.30;0.20;;;28.90;69.60;;;;;;5073056;28;20173;-68
2023/09/24 10:16:38;;;;;;;0.30;0.30;;;29.10;69.10;;;;;;5073857;28;20518;-65
2023/09/24 10:19:09;;;;;;;0.30;0.30;;;29.10;68.60;;;;;;5073833;28;20483;-67
2023/09/24 10:21:37;;;;;;;0.30;0.30;;;28.90;68.10;;;;;;5073997;28;20392;-65
2023/09/24 10:24:28;;;;;;;0.30;0.30;;;28.80;67.90;;;;;;5073811;28;20388;-68
2023/09/24 10:27:04;;;;;;;0.30;0.30;;;28.70;68.00;;;;;;5073510;28;20408;-66
2023/09/24 10:29:45;;;;;;;0.30;0.30;;;28.80;68.00;;;;;;5073987;28;20407;-68
2023/09/24 10:32:12;;;;;;;0.30;0.30;;;28.50;68.80;;;;;;5073589;28;20828;-68
2023/09/24 10:37:23;;;;;;;0.30;0.30;;;28.30;68.60;;;;;;5073730;28;20366;-69
2023/09/24 10:40:09;;;;;;;0.43;0.43;;;28.40;66.10;;;;;;5073535;28;20437;-67
2023/09/24 10:42:37;;;;;;;0.30;0.20;;;28.40;66.30;;;;;;5073709;28;20399;-67
2023/09/24 10:45:06;;;;;;;0.30;0.30;;;28.10;67.00;;;;;;5073139;28;20427;-68
2023/09/24 10:47:45;;;;;;;0.30;0.30;;;28.00;67.70;;;;;;5073656;28;20959;-67
2023/09/24 10:50:20;;;;;;;0.30;0.30;;;27.90;67.80;;;;;;5073883;28;20880;-66
2023/09/24 10:53:00;;;;;;;0.30;0.30;;;27.70;69.40;;;;;;5059515;28;20739;-69
2023/09/24 10:55:34;;;;;;;0.30;0.20;;;27.70;68.10;;;;;;5052859;28;20401;-66
2023/09/24 10:58:08;;;;;;;0.30;0.20;;;27.80;68.80;;;;;;5053494;28;20489;-68
2023/09/24 11:00:34;;;;;;;0.40;0.40;;;27.50;67.00;;;;;;5053305;28;20398;-66
2023/09/24 11:03:05;;;;;;;0.30;0.30;;;27.10;69.10;;;;;;5053412;28;20383;-65
2023/09/24 11:05:40;;;;;;;0.30;0.20;;;26.40;70.00;;;;;;5052736;28;20409;-66
2023/09/24 11:08:06;;;;;;;0.30;0.30;;;25.60;70.80;;;;;;5053243;28;20767;-70
2023/09/24 11:10:31;;;;;;;0.30;0.20;;;24.70;72.80;;;;;;5053322;28;20375;-67
2023/09/24 11:13:00;;;;;;;0.30;0.30;;;24.20;74.20;;;;;;5053212;28;20369;-68
2023/09/24 11:15:30;;;;;;;0.40;0.40;;;23.70;75.90;;;;;;5052943;28;20194;-66
2023/09/24 11:17:57;;;;;;;0.30;0.30;;;23.20;76.60;;;;;;5052845;28;20451;-67
2023/09/24 11:20:24;;;;;;;0.30;0.30;;;22.70;79.30;;;;;;5053231;28;20383;-70
2023/09/24 11:23:01;;;;;;;0.30;0.30;;;22.50;77.70;;;;;;5053035;28;20454;-68
2023/09/24 11:25:29;;;;;;;0.30;0.30;;;22.20;80.60;;;;;;5052992;28;20423;-68
2023/09/24 11:27:56;;;;;;;0.30;0.30;;;22.10;79.00;;;;;;5057439;28;20420;-69
2023/09/24 11:30:38;;;;;;;0.30;0.20;;;22.00;78.40;;;;;;5057260;28;20410;-66
2023/09/24 11:33:11;;;;;;;0.30;0.30;;;21.70;80.60;;;;;;5057241;28;20959;-69
2023/09/24 11:35:37;;;;;;;0.30;0.30;;;21.60;81.80;;;;;;5056736;28;20527;-66
2023/09/24 11:38:03;;;;;;;0.30;0.30;;;21.50;81.10;;;;;;5056914;28;20503;-67
2023/09/24 11:40:30;;;;;;;0.30;0.27;;;21.50;80.60;;;;;;5057102;28;20450;-67
2023/09/24 11:42:58;;;;;;;0.30;0.20;;;21.50;81.50;;;;;;5057076;28;20172;-67
2023/09/24 11:45:48;;;;;;;0.30;0.30;;;21.40;79.50;;;;;;5056542;28;20915;-66
2023/09/24 11:48:21;;;;;;;0.30;0.20;;;21.40;79.90;;;;;;5056917;28;20375;-68
2023/09/24 11:50:55;;;;;;;0.30;0.20;;;21.20;82.40;;;;;;5057315;28;20400;-67
2023/09/24 11:53:22;;;;;;;0.30;0.20;;;21.20;82.00;;;;;;5075323;28;20461;-68
2023/09/24 11:55:58;;;;;;;0.30;0.30;;;21.20;82.20;;;;;;5076360;28;20432;-67
2023/09/24 11:58:28;;;;;;;0.50;0.30;;;21.20;85.50;;;;;;5077194;28;20879;-68
2023/09/24 12:00:55;;;;;;;0.30;0.20;;;21.30;81.20;;;;;;5076963;28;20478;-70
2023/09/24 12:03:21;;;;;;;0.30;0.20;;;21.20;78.60;;;;;;5076615;28;20919;-67
2023/09/24 12:05:47;;;;;;;0.30;0.23;;;21.10;78.50;;;;;;5058059;28;20427;-67
2023/09/24 12:08:13;;;;;;;0.30;0.30;;;21.00;79.30;;;;;;5076664;28;20185;-66
2023/09/24 12:10:41;;;;;;;0.30;0.20;;;21.00;78.10;;;;;;5076466;28;20385;-68
2023/09/24 12:13:10;;;;;;;0.30;0.20;;;21.00;79.20;;;;;;5076512;28;20402;-66
2023/09/24 12:15:37;;;;;;;0.30;0.20;;;21.00;80.70;;;;;;5075953;28;20520;-67
2023/09/24 12:18:04;;;;;;;0.30;0.30;;;21.00;80.60;;;;;;5076447;28;20461;-67
2023/09/24 12:20:31;;;;;;;0.30;0.20;;;20.90;80.00;;;;;;5076368;28;20418;-67
2023/09/24 12:22:58;;;;;;;0.30;0.30;;;20.90;79.70;;;;;;5076410;28;20737;-67
2023/09/24 12:25:24;;;;;;;0.30;0.20;;;20.80;79.10;;;;;;5075865;28;20510;-67
2023/09/24 12:27:50;;;;;;;0.30;0.30;;;20.90;77.90;;;;;;5076480;28;20414;-68
2023/09/24 12:30:15;;;;;;;0.30;0.20;;;21.00;79.70;;;;;;5076170;28;20169;-69
2023/09/24 12:32:41;;;;;;;0.30;0.30;;;21.00;79.80;;;;;;5076420;28;20177;-66
2023/09/24 12:35:11;;;;;;;0.30;0.20;;;21.10;79.00;;;;;;5057962;28;20193;-66
2023/09/24 12:37:37;;;;;;;0.40;0.37;;;21.10;78.00;;;;;;5074776;28;20411;-69
2023/09/24 12:40:07;;;;;;;0.30;0.20;;;21.00;78.80;;;;;;5075868;28;20412;-69
2023/09/24 12:42:40;;;;;;;0.30;0.27;;;20.90;79.70;;;;;;5075800;28;20403;-68
2023/09/24 12:45:08;;;;;;;0.50;0.50;;;20.80;78.10;;;;;;5075410;28;20394;-69
2023/09/24 12:47:34;;;;;;;0.30;0.20;;;20.70;79.60;;;;;;5075820;28;20377;-68
2023/09/24 12:50:01;;;;;;;0.30;0.30;;;20.60;79.20;;;;;;5075799;28;20403;-67
2023/09/24 12:52:33;;;;;;;0.30;0.30;;;20.50;79.60;;;;;;5046741;28;20925;-67
2023/09/24 12:55:00;;;;;;;0.30;0.20;;;20.40;80.40;;;;;;5055521;28;20543;-67
2023/09/24 12:57:25;;;;;;;0.40;0.40;;;20.30;80.20;;;;;;5055820;28;20415;-66
2023/09/24 12:59:51;;;;;;;0.30;0.23;;;20.20;81.70;;;;;;5055602;28;20400;-66
2023/09/24 13:02:17;;;;;;;0.30;0.20;;;20.10;81.30;;;;;;5055506;28;20531;-68
2023/09/24 13:04:46;;;;;;;0.30;0.30;;;20.00;80.10;;;;;;5054983;28;20393;-65
2023/09/24 13:07:12;;;;;;;0.30;0.20;;;19.90;80.80;;;;;;5055314;28;20666;-66
2023/09/24 13:09:38;;;;;;;0.30;0.20;;;19.70;80.40;;;;;;5055545;28;20486;-65
2023/09/24 13:12:03;;;;;;;0.30;0.30;;;19.60;79.60;;;;;;5055491;28;20170;-68
2023/09/24 13:14:30;;;;;;;0.30;0.20;;;19.40;80.50;;;;;;5055098;28;20170;-65
2023/09/24 13:16:56;;;;;;;0.30;0.30;;;19.30;81.40;;;;;;5037691;28;20169;-66
2023/09/24 13:19:22;;;;;;;0.30;0.20;;;19.30;81.40;;;;;;5037047;28;20430;-68
2023/09/24 13:21:47;;;;;;;0.30;0.20;;;19.30;81.20;;;;;;5055211;28;20170;-67
2023/09/24 13:24:13;;;;;;;0.30;0.30;;;19.40;79.90;;;;;;5054815;28;20169;-68
2023/09/24 13:26:39;;;;;;;0.30;0.20;;;19.40;78.30;;;;;;5055183;28;20196;-66
2023/09/24 13:29:06;;;;;;;0.30;0.30;;;19.40;77.90;;;;;;5055220;28;20195;-68
2023/09/24 13:31:32;;;;;;;0.30;0.30;;;19.50;77.90;;;;;;5054810;28;20412;-66
2023/09/24 13:34:00;;;;;;;0.30;0.20;;;19.50;79.10;;;;;;5054577;28;20427;-68
2023/09/24 13:36:26;;;;;;;0.30;0.20;;;19.60;77.60;;;;;;5054773;28;20416;-68
2023/09/24 13:38:51;;;;;;;0.30;0.20;;;19.70;77.10;;;;;;5055047;28;20455;-66
2023/09/24 13:41:17;;;;;;;0.90;0.90;;;19.80;77.90;;;;;;5054824;28;20405;-68
2023/09/24 13:43:43;;;;;;;0.30;0.20;;;19.90;77.90;;;;;;5054466;28;20197;-67
2023/09/24 13:46:08;;;;;;;0.30;0.30;;;20.00;77.20;;;;;;5054486;28;20251;-66
2023/09/24 13:48:34;;;;;;;0.30;0.30;;;20.00;77.60;;;;;;5054926;28;20193;-69
2023/09/24 13:51:01;;;;;;;0.30;0.20;;;20.10;76.40;;;;;;5054522;28;20173;-67
2023/09/24 13:53:26;;;;;;;0.30;0.20;;;20.10;74.50;;;;;;5073634;28;20892;-66
2023/09/24 13:55:52;;;;;;;0.30;0.30;;;20.10;72.10;;;;;;5056224;28;20450;-68
2023/09/24 13:58:18;;;;;;;0.30;0.20;;;20.10;72.70;;;;;;5074623;28;20455;-65
2023/09/24 14:00:51;;;;;;;0.30;0.20;;;20.10;74.70;;;;;;5056396;28;20200;-67
2023/09/24 14:03:20;;;;;;;0.40;0.40;;;20.10;73.10;;;;;;5074272;28;20168;-67
2023/09/24 14:05:46;;;;;;;0.30;0.30;;;20.10;72.70;;;;;;5073819;28;20426;-68
2023/09/24 14:13:54;;;;;;;0.30;0.20;;;20.10;72.80;;;;;;5073829;28;20402;-68
2023/09/24 14:16:19;;;;;;;0.30;0.30;;;20.10;72.70;;;;;;5074279;28;20423;-66
2023/09/24 14:18:45;;;;;;;0.30;0.30;;;20.10;72.10;;;;;;5074115;28;20201;-66
2023/09/24 14:21:12;;;;;;;0.30;0.20;;;20.10;70.10;;;;;;5073966;28;20172;-67
2023/09/24 14:23:38;;;;;;;0.30;0.20;;;20.10;71.10;;;;;;5073854;28;20173;-68
2023/09/24 14:26:04;;;;;;;0.30;0.20;;;20.10;69.70;;;;;;5073619;28;20420;-67
2023/09/24 14:28:31;;;;;;;0.30;0.20;;;20.10;70.60;;;;;;5074084;28;20415;-66
2023/09/24 14:31:02;;;;;;;0.30;0.20;;;20.10;70.60;;;;;;5073829;28;20403;-67
2023/09/24 14:33:28;;;;;;;0.30;0.20;;;20.00;71.00;;;;;;5056352;28;20463;-66
2023/09/24 14:35:58;;;;;;;0.30;0.20;;;20.00;71.60;;;;;;5073346;28;20797;-66
2023/09/24 14:38:24;;;;;;;0.30;0.30;;;20.00;73.40;;;;;;5073616;28;20193;-65
2023/09/24 14:40:49;;;;;;;0.30;0.20;;;20.00;73.10;;;;;;5055784;28;20934;-67
2023/09/24 14:43:15;;;;;;;0.30;0.20;;;20.00;71.40;;;;;;5073607;28;20431;-65
2023/09/24 14:45:40;;;;;;;0.30;0.20;;;20.00;71.40;;;;;;5073127;28;20665;-67
2023/09/24 14:48:06;;;;;;;0.30;0.30;;;20.00;72.90;;;;;;5073612;28;20185;-67
2023/09/24 14:50:32;;;;;;;0.30;0.30;;;20.00;72.00;;;;;;5073584;28;20180;-67
2023/09/24 14:52:57;;;;;;;0.30;0.20;;;20.00;71.50;;;;;;5073671;28;20168;-67
2023/09/24 14:55:23;;;;;;;0.30;0.30;;;20.00;70.60;;;;;;5055209;28;20200;-68
2023/09/24 14:57:48;;;;;;;0.30;0.20;;;20.00;70.30;;;;;;5073526;28;20199;-67
2023/09/24 15:00:15;;;;;;;0.30;0.20;;;19.90;70.30;;;;;;5072751;28;20689;-66
2023/09/24 15:02:41;;;;;;;0.30;0.30;;;19.90;70.40;;;;;;5073589;28;20171;-66
2023/09/24 15:05:07;;;;;;;0.30;0.20;;;19.80;70.60;;;;;;5072819;28;20423;-67
2023/09/24 15:07:33;;;;;;;0.30;0.20;;;19.80;70.40;;;;;;5073347;28;20509;-66
2023/09/24 15:09:59;;;;;;;0.30;0.20;;;19.80;71.20;;;;;;5055292;28;20454;-67
2023/09/24 15:12:25;;;;;;;0.30;0.30;;;19.80;70.60;;;;;;5073683;28;20180;-68
2023/09/24 15:14:51;;;;;;;0.30;0.30;;;19.70;72.20;;;;;;5072801;28;20426;-66
2023/09/24 15:17:16;;;;;;;0.30;0.20;;;19.70;71.90;;;;;;5073595;28;20400;-66
2023/09/24 15:19:42;;;;;;;0.30;0.30;;;19.70;71.60;;;;;;5073391;28;20200;-65
2023/09/24 15:22:07;;;;;;;0.30;0.30;;;19.70;71.90;;;;;;5073736;28;20644;-68
2023/09/24 15:24:33;;;;;;;0.30;0.20;;;19.60;72.70;;;;;;5054910;28;20172;-68
2023/09/24 15:26:59;;;;;;;0.30;0.20;;;19.60;73.60;;;;;;5073069;28;20165;-67
2023/09/24 15:29:24;;;;;;;0.30;0.27;;;19.60;73.80;;;;;;5073277;28;20173;-67
2023/09/24 15:31:50;;;;;;;0.30;0.30;;;19.60;72.90;;;;;;5073281;28;20299;-67
2023/09/24 15:34:15;;;;;;;0.30;0.30;;;19.60;74.00;;;;;;5072909;28;20483;-68
2023/09/24 15:36:41;;;;;;;0.30;0.30;;;19.60;72.60;;;;;;5073015;28;20195;-67
2023/09/24 15:39:07;;;;;;;0.30;0.30;;;19.50;73.40;;;;;;5072924;28;20242;-67
2023/09/24 15:41:33;;;;;;;0.30;0.20;;;19.50;74.70;;;;;;5073109;28;20166;-64
2023/09/24 15:43:59;;;;;;;0.30;0.20;;;19.50;74.20;;;;;;5072652;28;20403;-65
2023/09/24 15:46:26;;;;;;;0.30;0.30;;;19.50;75.10;;;;;;5054833;28;20189;-67
2023/09/24 15:48:55;;;;;;;0.30;0.30;;;19.40;75.20;;;;;;5055052;28;20802;-66
2023/09/24 15:51:21;;;;;;;0.30;0.20;;;19.40;75.20;;;;;;5070931;28;20937;-66
2023/09/24 15:53:46;;;;;;;0.30;0.20;;;19.40;76.90;;;;;;5052584;28;20413;-66
2023/09/24 15:56:12;;;;;;;0.30;0.30;;;19.30;76.40;;;;;;5052839;28;20204;-66
2023/09/24 15:58:37;;;;;;;0.30;0.30;;;19.30;76.50;;;;;;5052805;28;20197;-69
2023/09/24 16:01:03;;;;;;;0.50;0.50;;;19.20;76.90;;;;;;5053075;28;20523;-67
2023/09/24 16:03:29;;;;;;;0.30;0.30;;;19.20;76.80;;;;;;5052814;28;20206;-68
2023/09/24 16:05:54;;;;;;;0.30;0.20;;;19.20;77.30;;;;;;5052108;28;20315;-65
2023/09/24 16:08:20;;;;;;;0.30;0.30;;;19.20;76.80;;;;;;5053178;28;20165;-68
2023/09/24 16:10:46;;;;;;;0.30;0.30;;;19.10;78.00;;;;;;5052911;28;20523;-65
2023/09/24 16:13:11;;;;;;;0.30;0.20;;;19.10;78.70;;;;;;5055763;28;20231;-65
2023/09/24 16:15:37;;;;;;;0.30;0.30;;;19.00;79.40;;;;;;5056241;28;20716;-68
2023/09/24 16:18:03;;;;;;;0.30;0.30;;;19.00;79.60;;;;;;5056545;28;20659;-67
2023/09/24 16:20:30;;;;;;;0.30;0.30;;;18.90;79.60;;;;;;5056601;28;20264;-69
2023/09/24 16:22:57;;;;;;;0.40;0.40;;;18.90;79.60;;;;;;5056286;28;20935;-67
2023/09/24 16:25:25;;;;;;;0.30;0.20;;;18.90;79.60;;;;;;5055820;28;20441;-67
2023/09/24 16:27:50;;;;;;;0.30;0.30;;;18.80;79.20;;;;;;5056251;28;20407;-67
2023/09/24 16:30:17;;;;;;;0.30;0.30;;;18.70;78.40;;;;;;5056955;28;20422;-68
2023/09/24 16:32:46;;;;;;;0.30;0.27;;;18.70;78.00;;;;;;5074595;28;20265;-67
2023/09/24 16:35:13;;;;;;;0.30;0.20;;;18.70;79.00;;;;;;5074288;28;20454;-66
2023/09/24 16:37:40;;;;;;;0.30;0.20;;;18.70;79.00;;;;;;5075684;28;20435;-65
2023/09/24 16:40:09;;;;;;;0.30;0.20;;;18.60;77.90;;;;;;5075359;28;20505;-66
2023/09/24 16:42:34;;;;;;;0.30;0.30;;;18.60;78.40;;;;;;5076094;28;20773;-70
2023/09/24 16:45:01;;;;;;;0.30;0.30;;;18.50;79.00;;;;;;5075308;28;20439;-69
2023/09/24 16:47:27;;;;;;;0.30;0.20;;;18.40;78.80;;;;;;5075405;28;20173;-73
2023/09/24 16:49:52;;;;;;;0.30;0.30;;;18.30;78.50;;;;;;5075572;28;20427;-67
2023/09/24 16:52:18;;;;;;;0.40;0.40;;;18.30;78.70;;;;;;5076393;28;20268;-66
2023/09/24 16:54:45;;;;;;;0.40;0.40;;;18.30;79.40;;;;;;5074939;28;20557;-67
2023/09/24 16:57:13;;;;;;;0.30;0.20;;;18.20;79.70;;;;;;5075758;28;20180;-62
2023/09/24 16:59:38;;;;;;;0.30;0.20;;;18.10;79.80;;;;;;5073368;28;20472;-63
2023/09/24 17:02:04;;;;;;;0.30;0.30;;;18.10;80.40;;;;;;5074375;28;20459;-62